• Join FlightAware (Why Join?)
  • Login
  • US Flag 
01:14PM EST


 

Airport Tracker/Info


-or-


 

Live Flight TrackerFlight Track Log ✈ FDX1482 ✈ 03-May-2013 ✈ KMEM - KBWI

Flight Track Log - Related Links

Times and Time Zones

All times are in EDT time to prevent confusion due to time zone crossing. See the FDX1482 flight status page for this flight to view local times or setup timezone preferences in your user account.

Time Position Orientation Groundspeed Altitude Reporting Facility
EDT Latitude Longitude Course Direction KTS MPH feet Rate Location/Type
05:03AM 35.0333 -89.9667 180° South 164 189 1,300  Level KMEM
05:03AM 35.0000 -89.9667 180° South 170 196 2,800 3,360 Climbing KMEM
05:05AM 34.9333 -89.9500 168° South 245 282 6,700 3,300 Climbing KMEM
05:06AM 34.9517 -89.7844 82° East 293 337 12,200 3,240 Climbing Memphis Center
05:07AM 35.0075 -89.6675 60° Northeast 344 396 15,500 3,300 Climbing Memphis Center
05:08AM 35.0631 -89.5403 62° Northeast 409 471 18,900 2,940 Climbing Memphis Center
05:09AM 35.1164 -89.4178 62° Northeast 432 497 21,400 2,520 Climbing Memphis Center
05:10AM 35.1800 -89.2772 61° Northeast 456 525 24,000 2,460 Climbing Memphis Center
05:11AM 35.2411 -89.1317 63° Northeast 472 543 26,400 2,460 Climbing Memphis Center
05:12AM 35.3000 -88.9756 65° Northeast 491 565 29,000 2,640 Climbing Memphis Center
05:13AM 35.3567 -88.8269 65° Northeast 491 565 31,700 420 Climbing Memphis Center
05:19AM 35.6650 -87.9690 65° Northeast 35,000 240 Climbing FlightAware
05:20AM 35.7100 -87.8410 67° East 35,000  Level FlightAware
05:20AM 35.7480 -87.7290 67° East 35,000  Level FlightAware
05:21AM 35.7800 -87.6350 67° East 35,000  Level FlightAware
05:22AM 35.8170 -87.5270 67° East 35,000  Level FlightAware
05:22AM 35.8560 -87.4120 67° East 35,000  Level FlightAware
05:23AM 35.8910 -87.3110 67° East 35,000  Level FlightAware
05:24AM 35.9280 -87.2000 68° East 35,000  Level FlightAware
05:24AM 35.9514 -87.1317 67° East 35,000  Level FlightAware ADS-B
05:25AM 35.9785 -87.0524 67° East 463 533 35,000  Level FlightAware ADS-B
05:25AM 36.0046 -86.9740 68° East 484 557 35,000  Level FlightAware ADS-B
05:26AM 36.0300 -86.8979 68° East 487 560 35,000  Level FlightAware ADS-B
05:26AM 36.0611 -86.8050 67° East 484 557 35,000  Level FlightAware ADS-B
05:27AM 36.0875 -86.7261 67° East 470 541 35,000  Level FlightAware ADS-B
05:27AM 36.1133 -86.6479 68° East 489 563 35,000  Level FlightAware ADS-B
05:28AM 36.1387 -86.5716 68° East 471 542 35,000  Level FlightAware ADS-B
05:28AM 36.1646 -86.4926 68° East 478 550 35,000  Level FlightAware ADS-B
05:29AM 36.1907 -86.4138 68° East 475 547 35,000  Level FlightAware ADS-B
05:30AM 36.2162 -86.3361 68° East 480 552 35,000  Level FlightAware ADS-B
05:30AM 36.2418 -86.2579 68° East 487 560 35,000  Level FlightAware ADS-B
05:31AM 36.2676 -86.1797 68° East 494 568 35,000  Level FlightAware ADS-B
05:31AM 36.2938 -86.0988 68° East 483 556 35,000  Level FlightAware ADS-B
05:32AM 36.3310 -85.9860 68° East 35,000  Level FlightAware
05:32AM 36.3473 -85.9344 69° East 482 555 35,000  Level FlightAware ADS-B
05:33AM 36.3740 -85.8518 68° East 484 557 35,000  Level FlightAware ADS-B
05:33AM 36.3998 -85.7720 68° East 483 556 35,000  Level FlightAware ADS-B
05:34AM 36.4259 -85.6910 68° East 481 554 35,000  Level FlightAware ADS-B
05:34AM 36.4544 -85.6020 68° East 475 547 35,000  Level FlightAware ADS-B
05:35AM 36.4803 -85.5209 68° East 492 566 35,000  Level FlightAware ADS-B
05:35AM 36.5112 -85.4242 68° East 475 547 35,000  Level FlightAware ADS-B
05:36AM 36.5364 -85.3442 69° East 481 554 35,000  Level FlightAware ADS-B
05:37AM 36.5755 -85.2211 68° East 490 564 35,000  Level FlightAware ADS-B
05:37AM 36.6003 -85.1430 68° East 480 552 35,000  Level FlightAware ADS-B
05:38AM 36.6277 -85.0558 69° East 494 568 35,000  Level FlightAware ADS-B
05:38AM 36.6519 -84.9786 69° East 485 558 35,000  Level FlightAware ADS-B
05:39AM 36.6804 -84.8872 69° East 474 545 35,000  Level FlightAware ADS-B
05:39AM 36.7084 -84.7980 69° East 486 559 35,000  Level FlightAware ADS-B
05:40AM 36.7338 -84.7164 69° East 485 558 35,000  Level FlightAware ADS-B
05:40AM 36.7579 -84.6387 69° East 479 551 35,000  Level FlightAware ADS-B
05:41AM 36.7822 -84.5594 69° East 482 555 35,000  Level FlightAware ADS-B
05:42AM 36.8068 -84.4802 69° East 481 554 35,000  Level FlightAware ADS-B
05:42AM 36.8307 -84.4026 69° East 473 544 35,000  Level FlightAware ADS-B
05:43AM 36.8543 -84.3252 69° East 478 550 35,000  Level FlightAware ADS-B
05:43AM 36.8789 -84.2453 69° East 493 567 35,000  Level FlightAware ADS-B
05:44AM 36.9029 -84.1663 69° East 475 547 35,000  Level FlightAware ADS-B
05:44AM 36.9271 -84.0873 69° East 489 563 35,000  Level FlightAware ADS-B
05:45AM 36.9506 -84.0094 69° East 479 551 35,000  Level FlightAware ADS-B
05:45AM 36.9742 -83.9315 69° East 494 568 35,000  Level FlightAware ADS-B
05:47AM 37.0641 -83.6317 69° East 471 542 35,000  Level FlightAware ADS-B
05:47AM 37.0876 -83.5531 69° East 480 552 35,000  Level FlightAware ADS-B
05:53AM 37.3336 -82.7154 70° East 486 559 35,000  Level FlightAware ADS-B
05:55AM 37.4373 -82.3542 70° East 486 559 35,000  Level FlightAware ADS-B
05:56AM 37.4606 -82.2721 70° East 475 547 35,000  Level FlightAware ADS-B
05:56AM 37.4834 -82.1915 70° East 465 535 35,000  Level FlightAware ADS-B
05:57AM 37.5078 -82.1055 70° East 488 562 35,000  Level FlightAware ADS-B
05:57AM 37.5307 -82.0248 70° East 487 560 35,000  Level FlightAware ADS-B
05:58AM 37.5545 -81.9398 71° East 471 542 35,000  Level FlightAware ADS-B
05:58AM 37.5780 -81.8559 71° East 480 552 35,000  Level FlightAware ADS-B
05:59AM 37.6007 -81.7747 71° East 497 572 35,000  Level FlightAware ADS-B
05:59AM 37.6230 -81.6947 71° East 475 547 35,000  Level FlightAware ADS-B
06:00AM 37.6464 -81.6104 71° East 500 575 35,000  Level FlightAware ADS-B
06:00AM 37.6691 -81.5287 71° East 477 549 35,000  Level FlightAware ADS-B
06:01AM 37.6918 -81.4456 71° East 481 554 35,000  Level FlightAware ADS-B
06:01AM 37.7147 -81.3627 71° East 486 559 35,000  Level FlightAware ADS-B
06:02AM 37.7387 -81.2755 71° East 492 566 35,000  Level FlightAware ADS-B
06:02AM 37.7640 -81.1840 71° East 35,000  Level FlightAware
06:03AM 37.7724 -81.1493 73° East 481 554 35,000  Level FlightAware ADS-B
06:03AM 37.7914 -81.0331 78° East 489 563 35,000  Level FlightAware ADS-B
06:04AM 37.8000 -80.9550 82° East 35,000  Level FlightAware
06:04AM 37.8237 -80.8388 75° East 483 556 35,000  Level FlightAware ADS-B
06:05AM 37.8491 -80.7514 70° East 482 555 35,000  Level FlightAware ADS-B
06:06AM 37.8728 -80.6709 70° East 481 554 35,000 -900 Level FlightAware ADS-B
06:07AM 37.9200 -80.5080 70° East 35,000 -960 Level FlightAware
06:07AM 37.9530 -80.3930 70° East 35,000 -960 Level FlightAware
06:12AM 38.1750 -79.6020 70° East 35,000 -960 Level FlightAware
06:13AM 38.1900 -79.5500 70° East 35,000 -1,140 Level FlightAware
06:14AM 38.2370 -79.3650 72° East 35,000 -1,140 Level FlightAware
06:20AM 38.4600 -78.4860 72° East 23,900 -1,200 Descending FlightAware
06:20AM 38.4960 -78.3630 69° East 22,500 -1,020 Descending FlightAware
06:21AM 38.5210 -78.2800 69° East 21,500 -960 Descending FlightAware
06:22AM 38.5500 -78.1780 70° East 20,300 -960 Descending FlightAware
06:22AM 38.5850 -78.0580 70° East 19,100 -900 Descending FlightAware
06:23AM 38.6100 -77.9720 70° East 19,000 -900 Descending FlightAware
06:24AM 38.6370 -77.8790 70° East 19,000 -900 Level FlightAware
06:25AM 38.6470 -77.7740 83° East 19,000 -960 Level FlightAware
06:25AM 38.6520 -77.6780 86° East 18,100 -1,020 Descending FlightAware
06:26AM 38.6590 -77.5660 85° East 17,000 -960 Descending FlightAware
06:27AM 38.6650 -77.4680 85° East 16,300 -960 Descending FlightAware
06:27AM 38.6700 -77.3720 86° East 15,600 -960 Descending FlightAware
06:28AM 38.6760 -77.2710 86° East 14,900 -960 Descending FlightAware
06:29AM 38.6810 -77.1900 85° East 13,800 -960 Descending FlightAware
06:29AM 38.6860 -77.0940 86° East 12,600 -900 Descending FlightAware
06:30AM 38.6910 -77.0140 85° East 11,500 -840 Descending FlightAware
06:31AM 38.6950 -76.9470 86° East 10,800 -840 Descending FlightAware
06:31AM 38.6980 -76.8840 86° East 10,100 -840 Descending FlightAware
06:32AM 38.6990 -76.8540 88° East 9,800 -780 Descending FlightAware
06:32AM 38.7010 -76.8190 86° East 9,400 -780 Descending FlightAware
06:33AM 38.7040 -76.7700 85° East 8,900 -780 Descending FlightAware
06:33AM 38.7110 -76.7300 77° East 8,400 -780 Descending FlightAware
06:33AM 38.7230 -76.7040 59° Northeast 8,000 -720 Descending FlightAware
06:34AM 38.7380 -76.6690 61° Northeast 7,600 -720 Descending FlightAware
06:34AM 38.7560 -76.6280 61° Northeast 7,000 -720 Descending FlightAware
06:35AM 38.7790 -76.5760 60° Northeast 6,300 -660 Descending FlightAware
06:35AM 38.7890 -76.5540 60° Northeast 6,000 -660 Descending FlightAware
06:35AM 38.8030 -76.5370 43° Northeast 5,700 -600 Descending FlightAware
06:36AM 38.8210 -76.5290 19° North 5,500 -600 Descending FlightAware
06:36AM 38.8570 -76.5390 348° North 5,300 -600 Descending FlightAware
06:37AM 38.8880 -76.5530 341° North 5,100 -600 Descending FlightAware
06:37AM 38.9280 -76.5720 340° North 4,900 -600 Descending FlightAware
06:38AM 38.9580 -76.5870 339° North 4,700 -660 Descending FlightAware
06:38AM 38.9730 -76.6010 324° Northwest 4,600 -660 Descending FlightAware
06:38AM 38.9840 -76.6210 305° West 4,500 -660 Descending FlightAware
06:39AM 39.0030 -76.6650 299° West 4,300 -660 Descending FlightAware
06:39AM 39.0200 -76.7040 299° West 4,200 -720 Descending FlightAware
06:39AM 39.0380 -76.7450 299° West 3,800 -720 Descending FlightAware
06:40AM 39.0530 -76.7790 300° West 3,600 -720 Descending FlightAware
06:40AM 39.0740 -76.8140 308° West 3,400 -780 Descending FlightAware
06:41AM 39.0890 -76.8230 335° Northwest 3,100 -840 Descending FlightAware
06:41AM 39.1210 -76.8420 335° Northwest 2,400 -780 Descending FlightAware
06:42AM 39.1610 -76.8380 North 1,600 -600 Descending FlightAware
06:43AM 39.1833 -76.7833 North 181 208 1,500 -480 Descending Potomac TRACON
06:44AM 39.1833 -76.7333 90° East 120 138 800 -720 Descending Potomac TRACON
06:46AM 39.1667 -76.6667 North  Level FlightAware Approximate
06:53AM 39.1754 -76.6683 North  Level Estimated
06:54AM 39.1754 -76.6683 North  Level Estimated